PWSweather.com
Personal Weather Stations
Station Observations
REUBENS
Camas Prairie, Reubens, ID

Camas PrairieReubens, ID

Lat: 46.35417, Lon: -116.53167

Elevation: 3480

Station Type: Davis VantagePro 2

http://www.theobrienranch.com/wx/wx.htm

High Low Average
Temperature 52.5°F11.4°F 40.3°F4.6°F 46.2°F7.9°F
Dew Point 44.7°F7.1°F 35.3°F1.8°F 41.4°F5.2°F
Winds 11.1 mph W17.9 mph W Calm Calm 2.4 mph 3.9 mph
Wind Gusts 13.0 mph20.9 mph -- 3.6 mph5.8 mph
Humidity 95% 68% 84%
Pressure 30.03 in1016.90 in 29.74 in1007.10 in -
Precipitation 0.21 in5.30 in - -
Hour Temp Dew Point Humidity Winds Wind Gusts Pressure Precip Precip Rate Daily Precip Total
12:00 AM 46.2°F7.9°C 41.3°F5.2°C 83% 2.0 mph NW3.2 kmh NW 4.0 mph6.4 kmh 29.76 in1007.8 mb 0.00 in0.0 mm 0.00 in/hr0.0 mm/hr 0.00 in0.0 mm
12:30 AM 45.8°F7.7°C 41.2°F5.1°C 84% 2.7 mph NW4.3 kmh NW 5.0 mph8.0 kmh 29.76 in1007.8 mb 0.00 in0.0 mm 0.00 in/hr0.0 mm/hr 0.00 in0.0 mm
01:00 AM 45.8°F7.7°C 40.9°F4.9°C 83% Calm Calm -- 29.75 in1007.5 mb 0.00 in0.0 mm 0.00 in/hr0.0 mm/hr 0.00 in0.0 mm
01:30 AM 45.9°F7.7°C 41.0°F5.0°C 83% 0.3 mph NW0.5 kmh NW 2.0 mph3.2 kmh 29.74 in1007.1 mb 0.00 in0.0 mm 0.00 in/hr0.0 mm/hr 0.00 in0.0 mm
02:00 AM 45.0°F7.2°C 41.6°F5.3°C 88% 2.5 mph NW4.0 kmh NW 4.0 mph6.4 kmh 29.77 in1008.1 mb 0.02 in0.5 mm 0.04 in/hr1.0 mm/hr 0.02 in0.5 mm
02:30 AM 44.3°F6.8°C 41.8°F5.4°C 91% 2.7 mph SW4.3 kmh SW 3.0 mph4.8 kmh 29.77 in1008.1 mb 0.03 in0.8 mm 0.06 in/hr1.5 mm/hr 0.05 in1.3 mm
03:00 AM 44.0°F6.7°C 41.8°F5.4°C 92% Calm Calm 1.0 mph1.6 kmh 29.79 in1008.8 mb 0.06 in1.5 mm 0.12 in/hr3.0 mm/hr 0.11 in2.8 mm
03:30 AM 43.9°F6.6°C 42.0°F5.6°C 93% 2.0 mph SW3.2 kmh SW 3.0 mph4.8 kmh 29.79 in1008.8 mb 0.03 in0.8 mm 0.06 in/hr1.5 mm/hr 0.14 in3.6 mm
04:00 AM 43.7°F6.5°C 41.9°F5.5°C 93% Calm Calm 1.0 mph1.6 kmh 29.80 in1009.1 mb 0.01 in0.3 mm 0.02 in/hr0.5 mm/hr 0.15 in3.8 mm
04:30 AM 43.8°F6.6°C 41.9°F5.5°C 93% 0.3 mph SW0.5 kmh SW -- 29.80 in1009.1 mb 0.00 in0.0 mm 0.00 in/hr0.0 mm/hr 0.15 in3.8 mm
05:00 AM 43.7°F6.5°C 42.1°F5.6°C 94% 3.0 mph S4.8 kmh S 5.0 mph8.0 kmh 29.83 in1010.2 mb 0.00 in0.0 mm 0.00 in/hr0.0 mm/hr 0.15 in3.8 mm
05:30 AM 43.6°F6.4°C 42.0°F5.6°C 94% 3.2 mph SE5.1 kmh SE 4.0 mph6.4 kmh 29.84 in1010.5 mb 0.01 in0.3 mm 0.02 in/hr0.5 mm/hr 0.16 in4.1 mm
06:00 AM 43.6°F6.4°C 42.3°F5.7°C 95% Calm Calm 1.0 mph1.6 kmh 29.84 in1010.5 mb 0.03 in0.8 mm 0.06 in/hr1.5 mm/hr 0.19 in4.8 mm
06:30 AM 43.6°F6.4°C 42.2°F5.7°C 95% 4.4 mph SSW7.1 kmh SSW 6.0 mph9.7 kmh 29.84 in1010.5 mb 0.02 in0.5 mm 0.04 in/hr1.0 mm/hr 0.21 in5.3 mm
07:00 AM 43.6°F6.4°C 41.7°F5.4°C 93% 2.0 mph SSW3.2 kmh SSW 2.0 mph3.2 kmh 29.85 in1010.8 mb 0.00 in0.0 mm 0.00 in/hr0.0 mm/hr 0.21 in5.3 mm
07:30 AM 43.7°F6.5°C 41.5°F5.3°C 92% 1.8 mph SSW2.9 kmh SSW 2.0 mph3.2 kmh 29.86 in1011.2 mb 0.00 in0.0 mm 0.00 in/hr0.0 mm/hr 0.21 in5.3 mm
08:00 AM 43.7°F6.5°C 41.8°F5.4°C 93% Calm Calm -- 29.88 in1011.9 mb 0.00 in0.0 mm 0.00 in/hr0.0 mm/hr 0.21 in5.3 mm
08:30 AM 43.7°F6.5°C 41.8°F5.4°C 93% Calm Calm -- 29.89 in1012.2 mb 0.00 in0.0 mm 0.00 in/hr0.0 mm/hr 0.21 in5.3 mm
09:00 AM 44.3°F6.8°C 42.4°F5.8°C 93% 1.1 mph SSW1.8 kmh SSW 2.0 mph3.2 kmh 29.91 in1012.9 mb 0.00 in0.0 mm 0.00 in/hr0.0 mm/hr 0.21 in5.3 mm
09:30 AM 45.0°F7.2°C 42.8°F6.0°C 92% 2.1 mph SW3.4 kmh SW 4.0 mph6.4 kmh 29.92 in1013.2 mb 0.00 in0.0 mm 0.00 in/hr0.0 mm/hr 0.21 in5.3 mm
10:00 AM 45.2°F7.3°C 42.7°F5.9°C 91% 4.1 mph W6.6 kmh W 5.0 mph8.0 kmh 29.93 in1013.5 mb 0.00 in0.0 mm 0.00 in/hr0.0 mm/hr 0.21 in5.3 mm
10:30 AM 46.5°F8.1°C 43.4°F6.3°C 89% 5.7 mph WSW9.2 kmh WSW 9.0 mph14.5 kmh 29.93 in1013.5 mb 0.00 in0.0 mm 0.00 in/hr0.0 mm/hr 0.21 in5.3 mm
11:00 AM 48.8°F9.3°C 43.9°F6.6°C 83% 7.0 mph W11.3 kmh W 10.0 mph16.1 kmh 29.93 in1013.5 mb 0.00 in0.0 mm 0.00 in/hr0.0 mm/hr 0.21 in5.3 mm
11:30 AM 48.0°F8.9°C 44.0°F6.7°C 86% 2.0 mph WSW3.2 kmh WSW 3.0 mph4.8 kmh 29.94 in1013.9 mb 0.00 in0.0 mm 0.00 in/hr0.0 mm/hr 0.21 in5.3 mm
12:00 PM 48.4°F9.1°C 43.5°F6.4°C 83% 4.7 mph W7.6 kmh W 7.0 mph11.3 kmh 29.95 in1014.2 mb 0.00 in0.0 mm 0.00 in/hr0.0 mm/hr 0.21 in5.3 mm
12:30 PM 49.0°F9.4°C 42.8°F6.0°C 79% 11.1 mph W17.9 kmh W 13.0 mph20.9 kmh 29.95 in1014.2 mb 0.00 in0.0 mm 0.00 in/hr0.0 mm/hr 0.21 in5.3 mm
01:00 PM 49.2°F9.6°C 43.0°F6.1°C 79% 4.9 mph W7.9 kmh W 7.0 mph11.3 kmh 29.95 in1014.2 mb 0.00 in0.0 mm 0.00 in/hr0.0 mm/hr 0.21 in5.3 mm
01:30 PM 51.4°F10.8°C 44.7°F7.1°C 78% 3.8 mph W6.1 kmh W 9.0 mph14.5 kmh 29.95 in1014.2 mb 0.00 in0.0 mm 0.00 in/hr0.0 mm/hr 0.21 in5.3 mm
02:00 PM 51.4°F10.8°C 43.4°F6.3°C 74% 2.1 mph NW3.4 kmh NW 3.0 mph4.8 kmh 29.95 in1014.2 mb 0.00 in0.0 mm 0.00 in/hr0.0 mm/hr 0.21 in5.3 mm
02:30 PM 51.9°F11.1°C 42.8°F6.0°C 71% 3.0 mph NW4.8 kmh NW 6.0 mph9.7 kmh 29.96 in1014.6 mb 0.00 in0.0 mm 0.00 in/hr0.0 mm/hr 0.21 in5.3 mm
03:00 PM 52.5°F11.4°C 44.1°F6.7°C 73% 3.4 mph NNW5.5 kmh NNW 6.0 mph9.7 kmh 29.96 in1014.6 mb 0.00 in0.0 mm 0.00 in/hr0.0 mm/hr 0.21 in5.3 mm
03:30 PM 51.0°F10.6°C 40.8°F4.9°C 68% 5.0 mph W8.0 kmh W 6.0 mph9.7 kmh 29.98 in1015.2 mb 0.00 in0.0 mm 0.00 in/hr0.0 mm/hr 0.21 in5.3 mm
04:00 PM 51.0°F10.6°C 40.8°F4.9°C 68% 4.0 mph SW6.4 kmh SW 6.0 mph9.7 kmh 29.98 in1015.2 mb 0.00 in0.0 mm 0.00 in/hr0.0 mm/hr 0.21 in5.3 mm
04:30 PM 50.3°F10.2°C 41.2°F5.1°C 71% Calm Calm -- 29.98 in1015.2 mb 0.00 in0.0 mm 0.00 in/hr0.0 mm/hr 0.21 in5.3 mm
05:00 PM 50.6°F10.3°C 41.2°F5.1°C 70% Calm Calm -- 29.98 in1015.2 mb 0.00 in0.0 mm 0.00 in/hr0.0 mm/hr 0.21 in5.3 mm
05:30 PM 49.2°F9.6°C 42.6°F5.9°C 78% 1.6 mph SW2.6 kmh SW 3.0 mph4.8 kmh 29.99 in1015.6 mb 0.00 in0.0 mm 0.00 in/hr0.0 mm/hr 0.21 in5.3 mm
06:00 PM 48.5°F9.2°C 41.3°F5.2°C 76% 2.1 mph E3.4 kmh E 3.0 mph4.8 kmh 30.00 in1015.9 mb 0.00 in0.0 mm 0.00 in/hr0.0 mm/hr 0.21 in5.3 mm
06:30 PM 47.7°F8.7°C 40.9°F4.9°C 77% 2.3 mph E3.7 kmh E 3.0 mph4.8 kmh 30.00 in1015.9 mb 0.00 in0.0 mm 0.00 in/hr0.0 mm/hr 0.21 in5.3 mm
07:00 PM 47.3°F8.5°C 41.1°F5.1°C 79% Calm Calm -- 30.02 in1016.6 mb 0.00 in0.0 mm 0.00 in/hr0.0 mm/hr 0.21 in5.3 mm
07:30 PM 47.1°F8.4°C 41.0°F5.0°C 79% Calm Calm -- 30.02 in1016.6 mb 0.00 in0.0 mm 0.00 in/hr0.0 mm/hr 0.21 in5.3 mm
08:00 PM 46.6°F8.1°C 40.8°F4.9°C 80% Calm Calm -- 30.02 in1016.6 mb 0.00 in0.0 mm 0.00 in/hr0.0 mm/hr 0.21 in5.3 mm
08:30 PM 45.6°F7.6°C 40.1°F4.5°C 81% Calm Calm -- 30.02 in1016.6 mb 0.00 in0.0 mm 0.00 in/hr0.0 mm/hr 0.21 in5.3 mm
09:00 PM 44.6°F7.0°C 39.2°F4.0°C 81% 1.6 mph WSW2.6 kmh WSW 2.0 mph3.2 kmh 30.02 in1016.6 mb 0.00 in0.0 mm 0.00 in/hr0.0 mm/hr 0.21 in5.3 mm
09:30 PM 41.7°F5.4°C 36.6°F2.6°C 82% 0.5 mph WSW0.8 kmh WSW 2.0 mph3.2 kmh 30.03 in1016.9 mb 0.00 in0.0 mm 0.00 in/hr0.0 mm/hr 0.21 in5.3 mm
10:00 PM 42.7°F5.9°C 36.6°F2.6°C 79% 4.4 mph S7.1 kmh S 5.0 mph8.0 kmh 30.01 in1016.3 mb 0.00 in0.0 mm 0.00 in/hr0.0 mm/hr 0.21 in5.3 mm
10:30 PM 41.3°F5.2°C 35.6°F2.0°C 80% 1.7 mph S2.7 kmh S 3.0 mph4.8 kmh 30.02 in1016.6 mb 0.00 in0.0 mm 0.00 in/hr0.0 mm/hr 0.21 in5.3 mm
11:00 PM 40.3°F4.6°C 35.3°F1.8°C 82% 3.5 mph S5.6 kmh S 4.0 mph6.4 kmh 30.03 in1016.9 mb 0.00 in0.0 mm 0.00 in/hr0.0 mm/hr 0.21 in5.3 mm
11:30 PM 41.3°F5.2°C 35.6°F2.0°C 80% 6.1 mph S9.8 kmh S 7.0 mph11.3 kmh 30.02 in1016.6 mb 0.00 in0.0 mm 0.00 in/hr0.0 mm/hr 0.21 in5.3 mm